Time;durP1;ratioP1;P1;durP2;ratioP2;P2;SDS_P1;SDS_P2;PMS_P1;PMS_P2;Temp;Humidity;BMP_temperature;BMP_pressure;BME280_temperature;BME280_humidity;BME280_pressure;Samples;Min_cycle;Max_cycle;Signal;HPM_P1;HPM_P2
2023/12/06 00:01:48;;;;;;;0.28;0.10;;;4.40;76.20;;;;;;4977598;28;20049;-80
2023/12/06 00:04:14;;;;;;;0.30;0.00;;;4.30;76.30;;;;;;4978121;28;20108;-79
2023/12/06 00:06:40;;;;;;;0.03;0.00;;;4.40;76.10;;;;;;4977752;28;20033;-80
2023/12/06 00:09:06;;;;;;;0.30;0.10;;;4.40;76.10;;;;;;5001481;28;20118;-78
2023/12/06 00:11:31;;;;;;;0.10;0.10;;;4.40;76.10;;;;;;4985334;28;20029;-78
2023/12/06 00:13:57;;;;;;;0.10;0.10;;;4.40;75.90;;;;;;4987634;28;20037;-78
2023/12/06 00:16:22;;;;;;;0.00;0.00;;;4.40;76.10;;;;;;4998281;28;20475;-79
2023/12/06 00:18:49;;;;;;;0.20;0.17;;;4.40;76.20;;;;;;4994984;28;20066;-78
2023/12/06 00:21:15;;;;;;;0.10;0.10;;;4.40;75.90;;;;;;4978161;28;20046;-80
2023/12/06 00:23:40;;;;;;;0.08;0.08;;;4.40;75.70;;;;;;4977590;28;20026;-79
2023/12/06 00:26:07;;;;;;;0.20;0.10;;;4.40;75.70;;;;;;4977319;28;20030;-79
2023/12/06 00:28:33;;;;;;;0.30;0.20;;;4.40;75.70;;;;;;4994416;28;20026;-80
2023/12/06 00:30:59;;;;;;;0.30;0.10;;;4.40;75.90;;;;;;4976901;28;20041;-80
2023/12/06 00:33:28;;;;;;;0.10;0.10;;;4.40;76.10;;;;;;4960878;28;20510;-79
2023/12/06 00:35:57;;;;;;;0.13;0.10;;;4.30;76.10;;;;;;4994412;28;20030;-81
2023/12/06 00:38:22;;;;;;;0.00;0.00;;;4.40;76.00;;;;;;4976636;28;20023;-79
2023/12/06 00:40:48;;;;;;;0.10;0.10;;;4.40;76.20;;;;;;4993878;28;20037;-81
2023/12/06 00:43:13;;;;;;;0.10;0.10;;;4.30;76.40;;;;;;4976682;28;20049;-81
2023/12/06 00:45:39;;;;;;;0.30;0.10;;;4.30;76.20;;;;;;4976745;28;20026;-81
2023/12/06 00:48:04;;;;;;;0.20;0.13;;;4.40;75.80;;;;;;4972566;28;20117;-81
2023/12/06 00:50:30;;;;;;;0.70;0.10;;;4.40;76.00;;;;;;4957221;28;20476;-78
2023/12/06 00:52:55;;;;;;;0.10;0.10;;;4.40;75.80;;;;;;4957361;28;20447;-80
2023/12/06 00:55:21;;;;;;;0.35;0.00;;;4.40;75.70;;;;;;4956908;28;20027;-80
2023/12/06 00:57:47;;;;;;;0.00;0.00;;;4.30;76.10;;;;;;4940253;28;20059;-81
2023/12/06 01:00:13;;;;;;;0.10;0.10;;;4.30;76.40;;;;;;4958156;28;20031;-81
2023/12/06 01:02:39;;;;;;;0.10;0.10;;;4.30;76.30;;;;;;4957270;28;20078;-80
2023/12/06 01:05:05;;;;;;;0.00;0.00;;;4.40;76.20;;;;;;4974618;28;20076;-82
2023/12/06 01:07:32;;;;;;;0.20;0.10;;;4.30;76.20;;;;;;4957040;28;20483;-81
2023/12/06 01:09:59;;;;;;;0.10;0.10;;;4.30;76.50;;;;;;4957254;28;20038;-82
2023/12/06 01:12:25;;;;;;;0.00;0.00;;;4.30;76.90;;;;;;4957155;28;20027;-80
2023/12/06 01:14:50;;;;;;;0.05;0.05;;;4.40;76.70;;;;;;4957233;28;20031;-82
2023/12/06 01:17:16;;;;;;;0.00;0.00;;;4.30;76.80;;;;;;4957140;28;20022;-81
2023/12/06 01:19:41;;;;;;;0.20;0.20;;;4.30;76.80;;;;;;4956772;28;20027;-82
2023/12/06 01:22:07;;;;;;;0.10;0.10;;;4.30;77.10;;;;;;4956862;28;20031;-82
2023/12/06 01:24:33;;;;;;;0.00;0.00;;;4.20;77.10;;;;;;4957280;28;20105;-82
2023/12/06 01:26:58;;;;;;;0.20;0.10;;;4.20;77.40;;;;;;4957050;28;20026;-82
2023/12/06 01:29:24;;;;;;;0.17;0.00;;;4.30;77.50;;;;;;4956690;28;20097;-80
2023/12/06 01:31:51;;;;;;;0.10;0.10;;;4.20;77.00;;;;;;4957109;28;20034;-81
2023/12/06 01:34:16;;;;;;;0.10;0.10;;;4.30;77.00;;;;;;4957119;28;20034;-81
2023/12/06 01:36:42;;;;;;;0.28;0.10;;;4.30;77.20;;;;;;4956970;28;20025;-81
2023/12/06 01:39:09;;;;;;;0.10;0.10;;;4.20;77.10;;;;;;4974015;28;20464;-81
2023/12/06 01:41:35;;;;;;;0.03;0.03;;;4.30;77.20;;;;;;4956993;28;20033;-81
2023/12/06 01:44:00;;;;;;;0.00;0.00;;;4.30;77.20;;;;;;4956975;28;20027;-82
2023/12/06 01:46:26;;;;;;;0.00;0.00;;;4.30;77.30;;;;;;4956466;28;20464;-81
2023/12/06 01:48:54;;;;;;;0.00;0.00;;;4.30;78.00;;;;;;4956757;28;20034;-79
2023/12/06 01:51:22;;;;;;;0.00;0.00;;;4.30;77.20;;;;;;4956704;28;20026;-80
2023/12/06 01:53:48;;;;;;;0.00;0.00;;;4.30;77.10;;;;;;4956691;28;20113;-79
2023/12/06 01:56:16;;;;;;;0.00;0.00;;;4.30;77.20;;;;;;4956686;28;20022;-80
2023/12/06 01:58:43;;;;;;;0.10;0.10;;;4.40;77.00;;;;;;4956894;28;20042;-79
2023/12/06 02:01:10;;;;;;;0.28;0.17;;;4.40;76.90;;;;;;4956146;28;20031;-79
2023/12/06 02:03:36;;;;;;;0.10;0.00;;;4.40;77.00;;;;;;4956673;28;20062;-79
2023/12/06 02:06:03;;;;;;;0.10;0.00;;;4.40;76.90;;;;;;4956730;28;20027;-79
2023/12/06 02:08:34;;;;;;;0.00;0.00;;;4.40;77.00;;;;;;4956383;28;20037;-79
2023/12/06 02:10:59;;;;;;;0.10;0.10;;;4.30;77.00;;;;;;4959898;28;20037;-79
2023/12/06 02:13:26;;;;;;;0.55;0.15;;;4.30;77.50;;;;;;4960262;28;20023;-79
2023/12/06 02:15:53;;;;;;;0.00;0.00;;;4.30;77.20;;;;;;4944469;28;20126;-80
2023/12/06 02:18:20;;;;;;;0.00;0.00;;;4.30;77.30;;;;;;4960130;28;20026;-79
2023/12/06 02:20:45;;;;;;;0.00;0.00;;;4.30;77.20;;;;;;4944249;28;20035;-84
2023/12/06 02:23:14;;;;;;;0.13;0.10;;;4.30;78.20;;;;;;4959994;28;20027;-84
2023/12/06 02:25:42;;;;;;;0.20;0.10;;;4.30;77.20;;;;;;4977345;28;20584;-79
2023/12/06 02:28:08;;;;;;;0.10;0.10;;;4.30;77.20;;;;;;4959764;28;20030;-79
2023/12/06 02:30:33;;;;;;;0.10;0.10;;;4.30;77.20;;;;;;4943978;28;20043;-79
2023/12/06 02:32:59;;;;;;;0.20;0.20;;;4.20;77.30;;;;;;4959633;28;20402;-83
2023/12/06 02:35:56;;;;;;;0.45;0.10;;;4.30;77.30;;;;;;4959965;28;20038;-79
2023/12/06 02:38:22;;;;;;;0.10;0.10;;;4.30;77.50;;;;;;4974866;28;20031;-80
2023/12/06 02:40:50;;;;;;;0.22;0.15;;;4.30;77.40;;;;;;4959765;28;20379;-81
2023/12/06 02:43:16;;;;;;;0.10;0.10;;;4.30;77.20;;;;;;4962529;28;20023;-82
2023/12/06 02:45:43;;;;;;;0.10;0.10;;;4.30;77.00;;;;;;4965738;28;20022;-80
2023/12/06 02:48:09;;;;;;;0.15;0.15;;;4.30;77.10;;;;;;4963250;28;20074;-82
2023/12/06 02:50:34;;;;;;;0.00;0.00;;;4.30;77.30;;;;;;4960675;28;20043;-82
2023/12/06 02:53:00;;;;;;;0.17;0.10;;;4.30;77.00;;;;;;4960602;28;20029;-81
2023/12/06 02:55:27;;;;;;;0.00;0.00;;;4.40;76.70;;;;;;4960194;28;20125;-81
2023/12/06 02:57:52;;;;;;;0.10;0.10;;;4.30;76.90;;;;;;4970234;28;20057;-82
2023/12/06 03:00:18;;;;;;;0.00;0.00;;;4.30;76.80;;;;;;4980405;28;20035;-82
2023/12/06 03:02:44;;;;;;;0.00;0.00;;;4.30;76.50;;;;;;4963031;28;20026;-81
2023/12/06 03:05:10;;;;;;;0.00;0.00;;;4.40;76.30;;;;;;4961253;28;20027;-82
2023/12/06 03:07:35;;;;;;;0.00;0.00;;;4.40;76.30;;;;;;4959424;28;20026;-82
2023/12/06 03:10:03;;;;;;;0.10;0.10;;;4.40;76.70;;;;;;4976778;28;20039;-82
2023/12/06 03:12:29;;;;;;;0.10;0.10;;;4.40;75.90;;;;;;4959207;28;20023;-82
2023/12/06 03:14:54;;;;;;;0.05;0.05;;;4.40;76.60;;;;;;4959423;28;20030;-82
2023/12/06 03:17:21;;;;;;;0.00;0.00;;;4.40;76.00;;;;;;4943931;28;20023;-83
2023/12/06 03:19:47;;;;;;;0.52;0.20;;;4.30;76.20;;;;;;4960628;28;20480;-83
2023/12/06 03:22:13;;;;;;;0.00;0.00;;;4.40;76.80;;;;;;4958266;28;20027;-84
2023/12/06 03:24:38;;;;;;;0.05;0.05;;;4.40;76.10;;;;;;4959610;28;20061;-83
2023/12/06 03:27:04;;;;;;;0.05;0.05;;;4.40;75.80;;;;;;4959134;28;20035;-83
2023/12/06 03:29:29;;;;;;;0.35;0.00;;;4.40;75.80;;;;;;4962136;28;20031;-83
2023/12/06 03:31:55;;;;;;;0.10;0.10;;;4.30;76.00;;;;;;4978483;28;20479;-81
2023/12/06 03:34:21;;;;;;;0.68;0.25;;;4.30;75.70;;;;;;4995346;28;20471;-82
2023/12/06 03:36:47;;;;;;;0.17;0.10;;;4.40;75.60;;;;;;4978156;28;20031;-83
2023/12/06 03:39:12;;;;;;;0.93;0.10;;;4.40;75.50;;;;;;4978986;28;20026;-83
2023/12/06 03:41:39;;;;;;;0.00;0.00;;;4.40;75.40;;;;;;4978242;28;20533;-82
2023/12/06 03:44:05;;;;;;;0.20;0.00;;;4.30;76.00;;;;;;4978403;28;20057;-82
2023/12/06 03:46:30;;;;;;;0.45;0.00;;;4.30;75.90;;;;;;4978158;28;20073;-81
2023/12/06 03:48:56;;;;;;;0.10;0.10;;;4.40;76.00;;;;;;4977989;28;20041;-82
2023/12/06 03:51:22;;;;;;;0.10;0.10;;;4.30;76.10;;;;;;4977551;28;20026;-77
2023/12/06 03:53:47;;;;;;;0.20;0.10;;;4.40;75.70;;;;;;4978644;28;20380;-82
2023/12/06 03:56:13;;;;;;;1.10;0.22;;;4.40;75.60;;;;;;4983298;28;20034;-77
2023/12/06 03:58:39;;;;;;;0.20;0.20;;;4.40;75.90;;;;;;4991799;28;20527;-74
2023/12/06 04:01:04;;;;;;;0.10;0.10;;;4.40;75.80;;;;;;5000828;28;20034;-75
2023/12/06 04:03:30;;;;;;;0.50;0.10;;;4.40;76.00;;;;;;4980711;28;20035;-79
2023/12/06 04:05:55;;;;;;;0.63;0.10;;;4.30;76.10;;;;;;4977781;28;20085;-78
2023/12/06 04:08:21;;;;;;;0.05;0.05;;;4.40;76.30;;;;;;4995868;28;20023;-81
2023/12/06 04:10:47;;;;;;;0.63;0.40;;;4.40;76.40;;;;;;4994876;28;20049;-79
2023/12/06 04:13:12;;;;;;;0.40;0.22;;;4.40;76.30;;;;;;4994992;28;20022;-80
2023/12/06 04:15:38;;;;;;;0.77;0.30;;;4.30;76.40;;;;;;4996344;28;20030;-83
2023/12/06 04:18:04;;;;;;;0.30;0.20;;;4.30;76.20;;;;;;4996027;28;20030;-86
2023/12/06 04:20:30;;;;;;;0.10;0.10;;;4.40;76.20;;;;;;4978614;28;20030;-87
2023/12/06 04:22:56;;;;;;;0.20;0.20;;;4.40;76.30;;;;;;4977928;28;20026;-80
2023/12/06 04:25:21;;;;;;;0.10;0.10;;;4.40;76.80;;;;;;4995105;28;20102;-78
2023/12/06 04:27:47;;;;;;;0.10;0.10;;;4.40;76.60;;;;;;4995130;28;20407;-79
2023/12/06 04:30:14;;;;;;;1.13;0.10;;;4.50;76.70;;;;;;4977134;28;20034;-81
2023/12/06 04:32:40;;;;;;;0.77;0.30;;;4.50;76.70;;;;;;4977369;28;20387;-84
2023/12/06 04:35:06;;;;;;;0.63;0.20;;;4.50;76.70;;;;;;4977482;28;20023;-83
2023/12/06 04:37:31;;;;;;;0.65;0.17;;;4.40;76.90;;;;;;4977188;28;20018;-82
2023/12/06 04:39:57;;;;;;;0.77;0.40;;;4.40;77.30;;;;;;4977147;28;20033;-82
2023/12/06 04:42:22;;;;;;;0.55;0.38;;;4.40;77.40;;;;;;4977185;28;20368;-80
2023/12/06 04:44:48;;;;;;;0.43;0.30;;;4.40;77.20;;;;;;4977554;28;20475;-83
2023/12/06 04:47:14;;;;;;;0.77;0.20;;;4.40;76.60;;;;;;4977565;28;20027;-84
2023/12/06 04:49:39;;;;;;;0.70;0.40;;;4.40;76.40;;;;;;4976933;28;20498;-79
2023/12/06 04:52:05;;;;;;;1.00;0.50;;;4.40;76.70;;;;;;4976983;28;20058;-78
2023/12/06 04:54:31;;;;;;;1.20;0.40;;;4.30;76.90;;;;;;4993145;28;20035;-78
2023/12/06 04:56:58;;;;;;;1.30;0.40;;;4.40;77.30;;;;;;4993516;28;20121;-77
2023/12/06 04:59:24;;;;;;;1.02;0.40;;;4.40;77.00;;;;;;4976099;28;20096;-79
2023/12/06 05:01:50;;;;;;;2.20;0.50;;;4.40;76.90;;;;;;4975988;28;20038;-80
2023/12/06 05:04:17;;;;;;;0.75;0.35;;;4.40;76.80;;;;;;4976053;28;20542;-76
2023/12/06 05:06:42;;;;;;;1.13;0.52;;;4.40;76.70;;;;;;4976224;28;20030;-76
2023/12/06 05:09:08;;;;;;;1.13;0.60;;;4.40;76.90;;;;;;4975726;28;20030;-77
2023/12/06 05:11:35;;;;;;;0.47;0.47;;;4.40;76.90;;;;;;4976088;28;20081;-77
2023/12/06 05:14:00;;;;;;;0.45;0.30;;;4.40;76.80;;;;;;4975778;28;20062;-76
2023/12/06 05:16:27;;;;;;;0.55;0.40;;;4.40;76.20;;;;;;4993499;28;20026;-76
2023/12/06 05:18:53;;;;;;;0.40;0.40;;;4.40;76.30;;;;;;4960083;28;20092;-75
2023/12/06 05:21:22;;;;;;;1.17;0.20;;;4.50;76.30;;;;;;4959424;28;20034;-78
2023/12/06 05:23:49;;;;;;;0.73;0.30;;;4.50;76.10;;;;;;4975818;28;20034;-77
2023/12/06 05:26:14;;;;;;;0.32;0.32;;;4.40;76.10;;;;;;4993716;28;20161;-81
2023/12/06 05:28:40;;;;;;;0.22;0.22;;;4.40;76.30;;;;;;4975979;28;20120;-77
2023/12/06 05:31:05;;;;;;;2.50;0.38;;;4.40;76.00;;;;;;4976267;28;20029;-81
2023/12/06 05:33:31;;;;;;;0.30;0.30;;;4.40;76.10;;;;;;4976861;28;20027;-81
2023/12/06 05:35:57;;;;;;;1.63;0.90;;;4.40;76.10;;;;;;4993744;28;20037;-80
2023/12/06 05:38:35;;;;;;;1.55;0.80;;;4.40;76.10;;;;;;4977270;28;20018;-78
2023/12/06 05:41:10;;;;;;;1.25;0.63;;;4.40;76.90;;;;;;4979584;28;20034;-78
2023/12/06 05:43:39;;;;;;;0.40;0.20;;;4.40;76.10;;;;;;4978244;28;20109;-76
2023/12/06 05:46:12;;;;;;;0.40;0.30;;;4.30;75.90;;;;;;4982077;28;20054;-78
2023/12/06 05:48:41;;;;;;;0.30;0.30;;;4.30;76.10;;;;;;4982647;28;20062;-76
2023/12/06 05:51:07;;;;;;;0.35;0.20;;;4.40;75.90;;;;;;4981785;28;20096;-76
2023/12/06 05:53:33;;;;;;;0.32;0.32;;;4.40;75.80;;;;;;4979733;28;20479;-75
2023/12/06 05:55:58;;;;;;;0.30;0.30;;;4.40;76.10;;;;;;4979792;28;20055;-76
2023/12/06 05:58:24;;;;;;;2.45;0.57;;;4.40;76.30;;;;;;4996905;28;20046;-76
2023/12/06 06:00:51;;;;;;;0.93;0.40;;;4.30;76.70;;;;;;4979625;28;20026;-75
2023/12/06 06:03:17;;;;;;;0.47;0.40;;;4.30;76.70;;;;;;4996896;28;20025;-76
2023/12/06 06:05:42;;;;;;;0.43;0.22;;;4.30;76.80;;;;;;4996955;28;20022;-76
2023/12/06 06:08:08;;;;;;;0.60;0.50;;;4.40;76.60;;;;;;4981696;28;20030;-76
2023/12/06 06:10:33;;;;;;;2.58;1.40;;;4.40;76.70;;;;;;4979752;28;20026;-76
2023/12/06 06:12:59;;;;;;;0.70;0.40;;;4.30;76.80;;;;;;4963688;28;20080;-75
2023/12/06 06:15:24;;;;;;;1.10;0.30;;;4.40;76.60;;;;;;4979194;28;20365;-76
2023/12/06 06:17:50;;;;;;;0.28;0.28;;;4.30;76.50;;;;;;4979576;28;20050;-77
2023/12/06 06:20:18;;;;;;;1.65;0.43;;;4.30;76.80;;;;;;4979967;28;20054;-75
2023/12/06 06:22:44;;;;;;;1.17;0.68;;;4.30;76.80;;;;;;4963161;28;20033;-75
2023/12/06 06:25:10;;;;;;;1.20;0.52;;;4.40;76.50;;;;;;4979344;28;20030;-75
2023/12/06 06:27:36;;;;;;;0.38;0.30;;;4.30;76.80;;;;;;4979238;28;20028;-77
2023/12/06 06:30:02;;;;;;;1.20;0.68;;;4.30;77.10;;;;;;4996385;28;20038;-77
2023/12/06 06:32:28;;;;;;;1.83;0.40;;;4.30;76.90;;;;;;4978713;28;20042;-79
2023/12/06 06:34:54;;;;;;;1.25;0.57;;;4.40;76.90;;;;;;4978751;28;20080;-76
2023/12/06 06:37:20;;;;;;;0.65;0.47;;;4.30;76.90;;;;;;4978653;28;20034;-76
2023/12/06 06:39:46;;;;;;;0.60;0.50;;;4.30;77.00;;;;;;4978276;28;20032;-76
2023/12/06 06:42:12;;;;;;;1.75;0.52;;;4.30;77.10;;;;;;4978872;28;20109;-82
2023/12/06 06:44:37;;;;;;;0.30;0.30;;;4.40;77.20;;;;;;4995788;28;20045;-78
2023/12/06 06:47:03;;;;;;;2.25;1.00;;;4.30;77.20;;;;;;4996180;28;20475;-75
2023/12/06 06:49:28;;;;;;;1.65;1.30;;;4.30;77.20;;;;;;4995950;28;20046;-77
2023/12/06 06:51:55;;;;;;;2.13;0.70;;;4.30;77.20;;;;;;4978526;28;20022;-75
2023/12/06 06:54:21;;;;;;;1.10;0.82;;;4.30;77.20;;;;;;4978646;28;20030;-75
2023/12/06 06:56:46;;;;;;;0.73;0.70;;;4.30;77.20;;;;;;4978507;28;20038;-76
2023/12/06 06:59:12;;;;;;;0.68;0.60;;;4.30;77.30;;;;;;4978186;28;20026;-77
2023/12/06 07:01:39;;;;;;;1.17;0.50;;;4.40;77.10;;;;;;5000848;28;20023;-76
2023/12/06 07:04:05;;;;;;;0.88;0.70;;;4.40;77.40;;;;;;4979028;28;20026;-76
2023/12/06 07:06:31;;;;;;;1.08;0.50;;;4.40;78.40;;;;;;4996555;28;20018;-76
2023/12/06 07:08:57;;;;;;;1.02;0.68;;;4.30;77.70;;;;;;4962203;28;20057;-76
2023/12/06 07:11:22;;;;;;;0.50;0.50;;;4.40;77.80;;;;;;4978610;28;20033;-78
2023/12/06 07:13:49;;;;;;;0.82;0.65;;;4.30;78.30;;;;;;4995859;28;20030;-77
2023/12/06 07:16:15;;;;;;;0.90;0.50;;;4.30;78.40;;;;;;4996098;28;20027;-75
2023/12/06 07:18:41;;;;;;;1.42;0.57;;;4.30;78.40;;;;;;4979180;28;20471;-76
2023/12/06 07:21:07;;;;;;;2.25;0.70;;;4.40;79.10;;;;;;4979040;28;20033;-78
2023/12/06 07:23:33;;;;;;;1.80;0.68;;;4.30;78.80;;;;;;4977800;28;20391;-75
2023/12/06 07:25:58;;;;;;;1.08;0.80;;;4.40;78.90;;;;;;4995468;28;20030;-75
2023/12/06 07:28:24;;;;;;;0.95;0.60;;;4.30;79.00;;;;;;4978310;28;20025;-76
2023/12/06 07:30:50;;;;;;;1.73;0.98;;;4.30;79.40;;;;;;4978056;28;20513;-76
2023/12/06 07:33:15;;;;;;;2.67;1.00;;;4.30;80.10;;;;;;4979745;28;20023;-79
2023/12/06 07:35:41;;;;;;;1.80;1.15;;;4.30;80.40;;;;;;4995292;28;20030;-79
2023/12/06 07:38:09;;;;;;;3.28;1.90;;;4.30;80.10;;;;;;4979296;28;20018;-79
2023/12/06 07:40:35;;;;;;;2.50;1.45;;;4.30;80.10;;;;;;4978332;28;20022;-79
2023/12/06 07:43:01;;;;;;;2.22;1.40;;;4.30;80.30;;;;;;4978145;28;20032;-81
2023/12/06 07:45:27;;;;;;;4.95;1.90;;;4.40;80.50;;;;;;4995733;28;20022;-76
2023/12/06 07:47:52;;;;;;;3.72;1.50;;;4.30;80.70;;;;;;4995360;28;20073;-77
2023/12/06 07:50:20;;;;;;;2.22;1.45;;;4.40;80.50;;;;;;4995083;28;20038;-83
2023/12/06 07:52:47;;;;;;;2.03;1.25;;;4.30;80.80;;;;;;4978181;28;20054;-79
2023/12/06 07:55:13;;;;;;;3.25;1.38;;;4.20;81.10;;;;;;4977887;28;20379;-78
2023/12/06 07:57:39;;;;;;;2.60;1.25;;;4.10;81.70;;;;;;4979097;28;20057;-78
2023/12/06 08:00:07;;;;;;;3.60;1.40;;;4.10;81.90;;;;;;4995172;28;20026;-76
2023/12/06 08:02:34;;;;;;;2.95;1.30;;;4.10;82.00;;;;;;4978384;28;20387;-79
2023/12/06 08:05:02;;;;;;;2.63;1.13;;;4.10;81.90;;;;;;4996842;28;20545;-80
2023/12/06 08:07:28;;;;;;;1.48;1.20;;;4.00;82.80;;;;;;4978770;28;20027;-78
2023/12/06 08:09:53;;;;;;;2.33;1.67;;;3.90;82.40;;;;;;4984427;28;20046;-80
2023/12/06 08:12:20;;;;;;;1.88;1.20;;;3.90;83.10;;;;;;4982712;28;20054;-77
2023/12/06 08:14:45;;;;;;;1.50;1.30;;;3.80;83.40;;;;;;5002360;28;20022;-78
2023/12/06 08:17:11;;;;;;;1.45;1.35;;;3.90;83.00;;;;;;4995231;28;20076;-80
2023/12/06 08:19:37;;;;;;;3.05;1.75;;;3.90;82.90;;;;;;4994682;28;20431;-78
2023/12/06 08:22:03;;;;;;;2.60;1.83;;;3.80;83.10;;;;;;4976644;28;20117;-75
2023/12/06 08:24:28;;;;;;;2.22;1.55;;;3.80;83.20;;;;;;4994414;28;20140;-79
2023/12/06 08:26:54;;;;;;;4.30;2.25;;;3.80;83.50;;;;;;4994843;28;20034;-80
2023/12/06 08:29:19;;;;;;;3.60;1.65;;;3.80;83.10;;;;;;4977257;28;20034;-79
2023/12/06 08:31:45;;;;;;;2.05;1.50;;;3.80;83.10;;;;;;4980668;28;20030;-77
2023/12/06 08:34:10;;;;;;;3.33;1.40;;;3.90;82.90;;;;;;4986777;28;20022;-78
2023/12/06 08:36:36;;;;;;;1.90;1.40;;;3.90;82.40;;;;;;4984894;28;20033;-78
2023/12/06 08:39:03;;;;;;;2.03;1.40;;;3.90;82.50;;;;;;4961898;28;20036;-77
2023/12/06 08:41:29;;;;;;;1.58;1.20;;;4.00;82.10;;;;;;4977316;28;20076;-75
2023/12/06 08:43:54;;;;;;;5.07;2.30;;;4.10;81.80;;;;;;4994176;28;20026;-80
2023/12/06 08:46:22;;;;;;;3.25;2.00;;;4.00;81.60;;;;;;4993800;28;20117;-76
2023/12/06 08:48:48;;;;;;;2.72;1.85;;;4.10;81.10;;;;;;4993879;28;20105;-80
2023/12/06 08:51:13;;;;;;;5.40;2.58;;;4.10;81.10;;;;;;4960472;28;20125;-76
2023/12/06 08:53:39;;;;;;;2.38;1.75;;;4.10;81.00;;;;;;4976128;28;20456;-76
2023/12/06 08:56:05;;;;;;;3.80;1.58;;;4.00;81.20;;;;;;4995089;28;20387;-75
2023/12/06 08:58:30;;;;;;;3.42;2.25;;;4.00;81.60;;;;;;4976002;28;20057;-77
2023/12/06 09:00:57;;;;;;;2.20;1.73;;;4.00;81.40;;;;;;4976527;28;20029;-77
2023/12/06 09:03:22;;;;;;;2.13;1.88;;;4.00;81.60;;;;;;4975911;28;20062;-76
2023/12/06 09:05:48;;;;;;;2.60;1.83;;;4.10;81.60;;;;;;4993752;28;20038;-79
2023/12/06 09:08:14;;;;;;;5.13;2.30;;;4.10;81.30;;;;;;4976465;28;20387;-79
2023/12/06 09:10:39;;;;;;;11.68;3.55;;;4.10;81.00;;;;;;4976250;28;20042;-75
2023/12/06 09:13:05;;;;;;;12.93;4.35;;;4.30;85.50;;;;;;4993522;28;20091;-74
2023/12/06 09:15:30;;;;;;;11.05;4.07;;;4.70;84.60;;;;;;4976855;28;20545;-81
2023/12/06 09:17:57;;;;;;;8.52;4.38;;;5.00;81.50;;;;;;4994980;28;20546;-78
2023/12/06 09:20:24;;;;;;;8.25;3.60;;;5.30;80.80;;;;;;4978745;28;20022;-81
2023/12/06 09:22:52;;;;;;;13.07;5.15;;;5.60;78.10;;;;;;4946078;28;20038;-81
2023/12/06 09:25:18;;;;;;;15.05;6.00;;;5.80;76.20;;;;;;4977233;28;20038;-80
2023/12/06 09:27:44;;;;;;;11.95;5.95;;;5.70;74.90;;;;;;4975608;28;20022;-78
2023/12/06 09:30:30;;;;;;;11.13;6.15;;;5.80;74.70;;;;;;4975578;28;20037;-77
2023/12/06 09:33:25;;;;;;;9.35;5.55;;;5.80;74.30;;;;;;5008625;23;20047;-81
2023/12/06 09:38:35;;;;;;;12.45;5.63;;;5.80;75.00;;;;;;5072695;22;20053;-78
2023/12/06 09:41:02;;;;;;;8.98;5.65;;;5.90;74.40;;;;;;5026867;23;20474;-75
2023/12/06 09:43:28;;;;;;;8.05;4.68;;;5.90;74.00;;;;;;5032682;28;20029;-80
2023/12/06 09:45:54;;;;;;;7.82;4.15;;;5.80;74.10;;;;;;5031192;28;20060;-79
2023/12/06 09:48:19;;;;;;;5.80;4.70;;;5.80;74.70;;;;;;5031402;28;20386;-77
2023/12/06 09:50:45;;;;;;;5.88;3.95;;;5.80;74.90;;;;;;5032697;28;20037;-80
2023/12/06 09:53:11;;;;;;;5.68;4.13;;;5.80;74.80;;;;;;5031416;28;20376;-77
2023/12/06 09:55:37;;;;;;;7.03;4.70;;;5.60;74.80;;;;;;5031335;28;20463;-76
2023/12/06 09:58:02;;;;;;;5.25;4.20;;;5.20;76.80;;;;;;5032105;28;20014;-77
2023/12/06 10:00:28;;;;;;;7.75;4.63;;;5.10;77.80;;;;;;5030730;28;20033;-75
2023/12/06 10:02:57;;;;;;;9.02;4.85;;;5.00;78.40;;;;;;5032086;28;20061;-76
2023/12/06 10:05:22;;;;;;;9.30;5.50;;;4.70;79.90;;;;;;5032161;28;20022;-76
2023/12/06 10:07:48;;;;;;;11.32;6.47;;;4.50;81.00;;;;;;5032182;28;20044;-76
2023/12/06 10:10:15;;;;;;;11.90;6.90;;;4.50;81.00;;;;;;5030834;28;20033;-77
2023/12/06 10:12:52;;;;;;;11.43;6.88;;;4.50;81.90;;;;;;5034193;28;20017;-77
2023/12/06 10:15:19;;;;;;;11.18;6.90;;;4.50;81.00;;;;;;5035585;28;20581;-78
2023/12/06 10:17:45;;;;;;;13.82;8.00;;;4.30;81.60;;;;;;5052083;28;20104;-75
2023/12/06 10:20:12;;;;;;;14.65;8.02;;;4.30;81.20;;;;;;5033980;28;20076;-75
2023/12/06 10:22:37;;;;;;;12.77;7.30;;;4.20;81.70;;;;;;5052040;28;20025;-75
2023/12/06 10:25:06;;;;;;;10.13;6.43;;;4.10;82.30;;;;;;5052245;28;20031;-75
2023/12/06 10:27:32;;;;;;;13.32;7.35;;;4.00;82.70;;;;;;5033914;28;20474;-75
2023/12/06 10:29:59;;;;;;;12.68;6.80;;;4.00;82.50;;;;;;5052350;28;20109;-75
2023/12/06 10:32:27;;;;;;;11.80;6.50;;;3.90;82.80;;;;;;5037834;28;20469;-76
2023/12/06 10:34:54;;;;;;;10.98;6.53;;;3.90;83.00;;;;;;5037537;28;20124;-76
2023/12/06 10:37:21;;;;;;;12.38;6.30;;;3.90;82.90;;;;;;5037547;28;20108;-76
2023/12/06 10:39:51;;;;;;;9.40;5.70;;;3.90;83.40;;;;;;5055479;28;20025;-74
2023/12/06 10:42:24;;;;;;;9.07;5.20;;;3.70;83.70;;;;;;5055280;28;20059;-75
2023/12/06 10:45:02;;;;;;;7.05;4.15;;;3.70;83.70;;;;;;5037327;28;20541;-75
2023/12/06 10:47:29;;;;;;;4.60;3.67;;;3.80;83.50;;;;;;5055082;28;20025;-75
2023/12/06 10:49:56;;;;;;;9.23;7.28;;;3.80;83.60;;;;;;5036685;28;20047;-75
2023/12/06 10:52:23;;;;;;;6.97;4.53;;;3.80;83.80;;;;;;5037376;28;20025;-75
2023/12/06 10:54:50;;;;;;;7.22;4.40;;;3.80;84.00;;;;;;5055011;28;20496;-74
2023/12/06 10:57:17;;;;;;;4.57;3.58;;;3.80;83.90;;;;;;5054750;28;20033;-76
2023/12/06 10:59:45;;;;;;;4.70;3.50;;;3.80;84.00;;;;;;5036914;28;20032;-76
2023/12/06 11:02:11;;;;;;;4.47;3.35;;;3.70;84.10;;;;;;5036953;28;20021;-76
2023/12/06 11:04:43;;;;;;;6.03;4.10;;;3.80;84.20;;;;;;5036759;28;20480;-76
2023/12/06 11:07:18;;;;;;;4.03;3.50;;;3.70;84.80;;;;;;5020222;28;20103;-75
2023/12/06 11:09:48;;;;;;;4.13;3.35;;;3.70;84.70;;;;;;5053405;28;20040;-74
2023/12/06 11:12:39;;;;;;;10.25;6.55;;;3.70;85.20;;;;;;5036633;28;20024;-75
2023/12/06 11:15:14;;;;;;;4.47;3.72;;;3.70;85.10;;;;;;5036691;28;20021;-73
2023/12/06 11:18:06;;;;;;;4.30;3.20;;;3.60;85.70;;;;;;5036570;28;20017;-75
2023/12/06 11:20:31;;;;;;;7.25;3.63;;;3.60;85.40;;;;;;5036476;28;20041;-77
2023/12/06 11:22:57;;;;;;;6.70;3.00;;;3.70;85.20;;;;;;5054227;28;20138;-76
2023/12/06 11:25:23;;;;;;;5.50;3.88;;;3.80;84.80;;;;;;5036491;28;20112;-76
2023/12/06 11:27:49;;;;;;;8.82;3.70;;;3.80;84.20;;;;;;5054789;28;20025;-76
2023/12/06 11:30:18;;;;;;;4.72;3.97;;;3.80;83.90;;;;;;5054941;28;20040;-75
2023/12/06 11:32:45;;;;;;;7.72;4.70;;;3.80;84.00;;;;;;5036432;28;20116;-76
2023/12/06 11:35:11;;;;;;;8.52;4.38;;;3.80;84.60;;;;;;5053962;28;20100;-76
2023/12/06 11:37:37;;;;;;;6.43;3.72;;;3.90;84.70;;;;;;5036575;28;20025;-76
2023/12/06 11:40:14;;;;;;;6.65;4.13;;;3.90;84.30;;;;;;5055532;28;20230;-76
2023/12/06 11:42:39;;;;;;;5.97;3.60;;;3.90;84.60;;;;;;5052962;28;20036;-75
2023/12/06 11:45:21;;;;;;;5.47;3.80;;;4.00;84.50;;;;;;5052943;28;20423;-74
2023/12/06 11:47:47;;;;;;;7.07;3.63;;;4.10;84.10;;;;;;5052518;28;20505;-76
2023/12/06 11:50:12;;;;;;;6.32;3.88;;;4.30;83.30;;;;;;5034967;28;20064;-76
2023/12/06 11:52:49;;;;;;;5.47;3.95;;;4.60;82.20;;;;;;5053390;28;20029;-75
2023/12/06 11:55:18;;;;;;;6.25;4.03;;;4.70;81.10;;;;;;5035098;28;20024;-75
2023/12/06 11:58:09;;;;;;;5.22;4.07;;;4.80;80.60;;;;;;5053143;28;20100;-75
2023/12/06 12:00:39;;;;;;;5.32;4.30;;;4.80;80.00;;;;;;5052568;28;20071;-75
2023/12/06 12:03:06;;;;;;;5.60;4.30;;;4.80;80.30;;;;;;5053188;28;20021;-75
2023/12/06 12:05:32;;;;;;;5.45;4.28;;;4.80;80.20;;;;;;5053540;28;20044;-77
2023/12/06 12:08:01;;;;;;;6.40;4.13;;;4.80;79.70;;;;;;5053108;28;20532;-76
2023/12/06 12:10:27;;;;;;;5.05;4.00;;;4.70;80.00;;;;;;5035079;28;20029;-77
2023/12/06 12:12:53;;;;;;;6.20;4.97;;;4.80;80.10;;;;;;5034259;28;20167;-76
2023/12/06 12:15:18;;;;;;;6.82;5.38;;;4.80;79.90;;;;;;5034953;28;20112;-77
2023/12/06 12:17:45;;;;;;;9.02;6.38;;;4.70;80.00;;;;;;5052893;28;20021;-76
2023/12/06 12:20:13;;;;;;;7.60;5.20;;;4.70;79.10;;;;;;5052854;28;20404;-77
2023/12/06 12:22:51;;;;;;;7.47;5.07;;;4.50;80.20;;;;;;5052513;28;20029;-75
2023/12/06 12:25:19;;;;;;;7.03;5.53;;;4.50;79.70;;;;;;5027042;28;20016;-77
2023/12/06 12:27:48;;;;;;;5.88;5.28;;;4.40;80.40;;;;;;5032817;28;20485;-77
2023/12/06 12:30:17;;;;;;;6.78;5.50;;;4.30;80.50;;;;;;5034968;28;20029;-75
2023/12/06 12:32:53;;;;;;;10.98;6.32;;;4.30;81.00;;;;;;5035637;28;20473;-75
2023/12/06 12:35:23;;;;;;;9.02;6.28;;;4.30;80.60;;;;;;5035640;28;20207;-76
2023/12/06 12:37:49;;;;;;;11.05;6.80;;;4.40;79.20;;;;;;5035784;28;20021;-76
2023/12/06 12:40:15;;;;;;;11.13;8.02;;;4.40;79.40;;;;;;5053276;28;20045;-77
2023/12/06 12:42:43;;;;;;;8.63;5.95;;;4.40;79.10;;;;;;5018314;28;20025;-76
2023/12/06 12:45:19;;;;;;;7.85;5.70;;;4.40;78.90;;;;;;5034788;28;20020;-75
2023/12/06 12:47:53;;;;;;;8.98;6.47;;;4.50;78.50;;;;;;5047883;28;20478;-76
2023/12/06 12:50:21;;;;;;;8.10;6.38;;;4.50;78.10;;;;;;5053099;28;20095;-76
2023/12/06 12:52:49;;;;;;;8.38;6.60;;;4.50;77.40;;;;;;5035274;28;20027;-76
2023/12/06 12:55:19;;;;;;;9.68;6.43;;;4.50;77.00;;;;;;5035016;28;20021;-75
2023/12/06 12:57:45;;;;;;;8.05;5.68;;;4.60;77.00;;;;;;5035155;28;20389;-75